Time;durP1;ratioP1;P1;durP2;ratioP2;P2;SDS_P1;SDS_P2;PMS_P1;PMS_P2;Temp;Humidity;BMP_temperature;BMP_pressure;BME280_temperature;BME280_humidity;BME280_pressure;Samples;Min_cycle;Max_cycle;Signal;HPM_P1;HPM_P2
2023/04/23 02:22:24;;;;;;;;;;;;;;;;;;;;;
2023/04/23 02:25:46;;;;;;;59.13;37.55;;;7.50;99.90;;;;;;4832007;29;20069;-95
2023/04/23 02:33:46;;;;;;;;;;;;;;;;;;;;;
2023/04/23 03:07:58;;;;;;;;;;;;;;;;;;;;;
2023/04/23 03:11:54;;;;;;;;;;;;;;;;;;;;;
2023/04/23 03:14:43;;;;;;;;;;;;;;;;;;;;;
2023/04/23 03:18:53;;;;;;;75.43;42.38;;;6.10;99.90;;;;;;4862723;29;20048;-94
2023/04/23 03:21:06;;;;;;;;;;;;;;;;;;;;;
2023/04/23 03:25:28;;;;;;;76.57;44.35;;;6.50;99.90;;;;;;4863293;29;20844;-95
2023/04/23 03:28:03;;;;;;;80.35;45.80;;;6.70;99.90;;;;;;4848508;29;20508;-95
2023/04/23 03:35:06;;;;;;;;;;;;;;;;;;;;;
2023/04/23 03:38:10;;;;;;;;;;;;;;;;;;;;;
2023/04/23 03:41:35;;;;;;;;;;;;;;;;;;;;;
2023/04/23 03:47:05;;;;;;;97.45;49.72;;;6.70;99.90;;;;;;4853504;29;20101;-94
2023/04/23 03:53:25;;;;;;;101.05;52.25;;;6.40;99.90;;;;;;4832653;29;20064;-95
2023/04/23 03:59:47;;;;;;;116.63;56.20;;;6.60;99.90;;;;;;4776364;29;20068;-95
2023/04/23 04:02:50;;;;;;;;;;;;;;;;;;;;;
2023/04/23 04:06:19;;;;;;;163.70;64.38;;;6.60;99.90;;;;;;4884327;29;20513;-93
2023/04/23 04:08:25;;;;;;;286.45;67.80;;;6.80;99.90;;;;;;4858296;29;20075;-94
2023/04/23 04:11:40;;;;;;;;;;;;;;;;;;;;;
2023/04/23 04:14:18;;;;;;;220.80;67.30;;;6.90;99.90;;;;;;4879957;29;20053;-96
2023/04/23 04:16:44;;;;;;;147.75;63.63;;;7.00;99.90;;;;;;4888269;29;20483;-95
2023/04/23 04:20:06;;;;;;;;;;;;;;;;;;;;;
2023/04/23 04:22:45;;;;;;;;;;;;;;;;;;;;;
2023/04/23 04:25:56;;;;;;;;;;;;;;;;;;;;;
2023/04/23 04:32:20;;;;;;;;;;;;;;;;;;;;;
2023/04/23 04:35:01;;;;;;;106.85;54.80;;;7.70;99.90;;;;;;4886406;29;20068;-94
2023/04/23 04:38:12;;;;;;;121.85;58.10;;;7.00;99.90;;;;;;4849816;29;20060;-94
2023/04/23 04:41:34;;;;;;;;;;;;;;;;;;;;;
2023/04/23 04:44:34;;;;;;;113.57;55.95;;;7.40;99.90;;;;;;4854236;29;20515;-94
2023/04/23 04:47:31;;;;;;;137.93;59.30;;;7.00;99.90;;;;;;4833358;29;20056;-93
2023/04/23 04:50:30;;;;;;;;;;;;;;;;;;;;;
2023/04/23 05:00:11;;;;;;;;;;;;;;;;;;;;;
2023/04/23 05:02:53;;;;;;;;;;;;;;;;;;;;;
2023/04/23 05:22:05;;;;;;;;;;;;;;;;;;;;;
2023/04/23 05:37:13;;;;;;;;;;;;;;;;;;;;;
2023/04/23 05:58:51;;;;;;;157.35;72.50;;;8.00;99.90;;;;;;4873268;29;20330;-95
2023/04/23 06:19:52;;;;;;;;;;;;;;;;;;;;;
2023/04/23 06:22:21;;;;;;;161.65;74.15;;;8.50;99.90;;;;;;4792550;29;20049;-95
2023/04/23 06:32:00;;;;;;;152.93;72.40;;;8.70;99.90;;;;;;4829475;29;20489;-95
2023/04/23 06:35:30;;;;;;;151.32;73.38;;;8.80;99.90;;;;;;4846736;29;20059;-96
2023/04/23 06:38:32;;;;;;;;;;;;;;;;;;;;;
2023/04/23 06:41:52;;;;;;;140.75;70.13;;;9.20;99.90;;;;;;4889114;29;20084;-96
2023/04/23 06:44:16;;;;;;;;;;;;;;;;;;;;;
2023/04/23 06:46:55;;;;;;;120.68;67.60;;;10.20;99.90;;;;;;4889928;29;20084;-96
2023/04/23 06:49:22;;;;;;;117.95;66.28;;;9.20;99.90;;;;;;4903904;23;20067;-96
2023/04/23 06:54:46;;;;;;;100.32;57.70;;;9.90;99.90;;;;;;4928558;23;20115;-96
2023/04/23 16:13:21;;;;;;;22.02;9.98;;;18.00;99.90;;;;;;4906267;29;20044;-90
2023/04/23 16:15:48;;;;;;;12.50;4.60;;;18.00;99.90;;;;;;4876146;29;20437;-92
2023/04/23 17:42:12;;;;;;;5.60;0.98;;;15.30;99.90;;;;;;5186844;23;20139;-96
2023/04/23 17:44:46;;;;;;;4.93;0.90;;;15.00;99.90;;;;;;4858415;29;20053;-96
2023/04/23 17:47:20;;;;;;;5.93;1.00;;;14.70;99.90;;;;;;4837304;29;20065;-96
2023/04/23 17:52:29;;;;;;;4.22;0.88;;;14.50;99.90;;;;;;5424694;23;20057;-96
2023/04/23 17:55:03;;;;;;;5.15;1.00;;;14.30;99.90;;;;;;4837287;29;20065;-95
2023/04/23 17:57:39;;;;;;;7.32;0.90;;;14.30;99.90;;;;;;4855322;29;20071;-96
2023/04/23 18:00:16;;;;;;;4.07;0.70;;;14.20;99.90;;;;;;4849547;29;20507;-96
2023/04/23 18:03:15;;;;;;;6.28;1.20;;;14.10;99.90;;;;;;4869495;29;20656;-96
2023/04/23 18:05:55;;;;;;;3.75;1.30;;;13.80;99.90;;;;;;4862077;29;20053;-96
2023/04/23 18:08:31;;;;;;;7.10;1.50;;;14.00;99.90;;;;;;4849306;29;20045;-96
2023/04/23 18:11:07;;;;;;;4.82;0.93;;;13.90;99.90;;;;;;4843406;29;20061;-96
2023/04/23 18:13:40;;;;;;;16.17;2.75;;;13.80;99.90;;;;;;4863997;29;20427;-96
2023/04/23 18:16:14;;;;;;;19.33;4.13;;;13.70;99.90;;;;;;4832903;29;20077;-96
2023/04/23 18:29:56;;;;;;;10.90;2.20;;;13.30;99.90;;;;;;4833905;29;20065;-96
2023/04/23 18:33:30;;;;;;;11.63;1.88;;;13.30;99.90;;;;;;4807545;29;20046;-96
2023/04/23 18:35:38;;;;;;;9.15;2.53;;;13.20;99.90;;;;;;4818139;29;20050;-95
2023/04/23 18:38:45;;;;;;;9.98;2.05;;;13.10;99.90;;;;;;4826443;29;20088;-96
2023/04/23 18:41:18;;;;;;;10.80;2.85;;;13.10;99.90;;;;;;4827023;29;20137;-96
2023/04/23 18:43:58;;;;;;;9.48;2.13;;;13.00;99.90;;;;;;4833322;29;20081;-95
2023/04/23 18:46:43;;;;;;;;;;;;;;;;;;;;;
2023/04/23 18:49:47;;;;;;;6.80;2.15;;;12.90;99.90;;;;;;4829874;29;20122;-95
2023/04/23 18:52:21;;;;;;;6.45;2.10;;;12.80;99.90;;;;;;4827207;29;20049;-96
2023/04/23 18:54:55;;;;;;;8.80;2.50;;;12.70;99.90;;;;;;4826679;29;20149;-96
2023/04/23 18:57:29;;;;;;;6.93;2.78;;;12.70;99.90;;;;;;4829329;29;20478;-96
2023/04/23 19:00:02;;;;;;;6.80;1.98;;;12.60;99.90;;;;;;4818847;29;20046;-94
2023/04/23 19:02:41;;;;;;;8.07;2.00;;;12.50;99.90;;;;;;4820008;29;20057;-94
2023/04/23 19:05:16;;;;;;;8.18;1.85;;;12.50;99.90;;;;;;4825725;29;20056;-93
2023/04/23 19:08:02;;;;;;;;;;;;;;;;;;;;;
2023/04/23 19:10:40;;;;;;;5.95;1.40;;;12.50;99.90;;;;;;4822888;29;20060;-96
2023/04/23 19:13:19;;;;;;;4.80;1.50;;;12.50;99.90;;;;;;4825738;29;20157;-93
2023/04/23 19:16:09;;;;;;;7.05;1.85;;;12.50;99.90;;;;;;4815103;29;20578;-93
2023/04/23 19:19:13;;;;;;;7.22;2.03;;;12.50;99.90;;;;;;4846764;29;20049;-95
2023/04/23 19:21:47;;;;;;;6.43;1.73;;;12.50;99.90;;;;;;4825130;29;20078;-93
2023/04/23 19:24:33;;;;;;;4.78;1.92;;;12.20;99.90;;;;;;4833872;29;20156;-93
2023/04/23 19:27:10;;;;;;;7.40;2.00;;;12.50;99.90;;;;;;4823253;29;20283;-94
2023/04/23 19:29:55;;;;;;;;;;;;;;;;;;;;;
2023/04/23 19:32:40;;;;;;;5.03;1.50;;;12.50;99.90;;;;;;4847579;29;20061;-93
2023/04/23 19:35:17;;;;;;;8.45;1.90;;;12.50;99.90;;;;;;4843333;29;20782;-94
2023/04/23 19:37:53;;;;;;;5.88;1.95;;;12.50;99.90;;;;;;4829753;29;20504;-94
2023/04/23 19:40:29;;;;;;;8.57;2.50;;;12.50;99.90;;;;;;4847650;29;20168;-94
2023/04/23 19:43:04;;;;;;;4.75;1.73;;;12.50;99.90;;;;;;4850843;29;20121;-93
2023/04/23 19:45:39;;;;;;;4.30;2.00;;;12.40;99.90;;;;;;4828800;29;20188;-92
2023/04/23 19:48:16;;;;;;;5.75;2.40;;;12.40;99.90;;;;;;4824590;29;20053;-95
2023/04/23 19:50:50;;;;;;;6.43;2.10;;;12.30;99.90;;;;;;4843392;29;20149;-95
2023/04/23 19:53:23;;;;;;;7.40;2.30;;;12.30;99.90;;;;;;4847349;29;20486;-94
2023/04/23 19:55:56;;;;;;;7.03;2.40;;;12.20;99.90;;;;;;4850165;29;20053;-94
2023/04/23 19:58:30;;;;;;;7.50;2.22;;;12.10;99.90;;;;;;4815872;29;20048;-93
2023/04/23 20:01:03;;;;;;;6.25;2.33;;;12.10;99.90;;;;;;4829776;29;20076;-94
2023/04/23 20:03:35;;;;;;;4.03;2.00;;;12.00;99.90;;;;;;4850130;29;20383;-94
2023/04/23 20:06:07;;;;;;;6.25;2.10;;;12.10;99.90;;;;;;4846662;29;20041;-94
2023/04/23 20:09:03;;;;;;;8.20;2.22;;;12.00;99.90;;;;;;4848764;29;20057;-95
2023/04/23 20:11:33;;;;;;;6.53;2.60;;;12.10;99.90;;;;;;4850893;29;20049;-94
2023/04/23 20:14:05;;;;;;;5.40;2.25;;;12.00;99.90;;;;;;4859987;29;20037;-94
2023/04/23 20:16:36;;;;;;;;;;;11.90;99.90;;;;;;4854256;29;20072;-94
2023/04/23 20:19:11;;;;;;;4.65;1.88;;;12.40;99.90;;;;;;4852555;29;19934;-94
2023/04/23 20:21:44;;;;;;;9.13;2.40;;;12.00;99.90;;;;;;4853171;29;20049;-94
2023/04/23 20:24:15;;;;;;;5.72;1.85;;;12.00;99.90;;;;;;4828875;29;20105;-93
2023/04/23 20:26:45;;;;;;;9.45;2.05;;;12.00;99.90;;;;;;4843435;29;20045;-94
2023/04/23 20:29:15;;;;;;;7.03;2.25;;;12.00;99.90;;;;;;4827952;29;20239;-95
2023/04/23 20:31:48;;;;;;;3.58;1.90;;;12.00;99.90;;;;;;4828407;29;20042;-93
2023/04/23 20:34:18;;;;;;;7.05;2.72;;;11.90;99.90;;;;;;4842912;29;20093;-93
2023/04/23 20:36:47;;;;;;;7.32;2.00;;;11.90;99.90;;;;;;4829260;29;20049;-93
2023/04/23 20:39:22;;;;;;;6.63;2.22;;;11.90;99.90;;;;;;4842526;29;20096;-93
2023/04/23 20:41:53;;;;;;;4.07;2.15;;;11.80;99.90;;;;;;4843397;29;20049;-92
2023/04/23 20:44:23;;;;;;;7.40;2.30;;;11.80;99.90;;;;;;4842271;29;20038;-93
2023/04/23 20:46:50;;;;;;;4.68;2.33;;;11.40;99.90;;;;;;4833349;29;20037;-93
2023/04/23 20:49:20;;;;;;;6.30;2.58;;;11.80;99.90;;;;;;4833370;29;20049;-93
2023/04/23 20:51:46;;;;;;;6.28;2.65;;;11.80;99.90;;;;;;4826958;29;20086;-93
2023/04/23 20:54:12;;;;;;;4.68;2.42;;;11.80;99.90;;;;;;4830607;29;20049;-95
2023/04/23 20:56:38;;;;;;;8.48;2.70;;;11.70;99.90;;;;;;4851995;29;20109;-93
2023/04/23 20:59:04;;;;;;;8.27;3.10;;;11.70;99.90;;;;;;4827273;29;20497;-94
2023/04/23 21:01:30;;;;;;;5.20;2.45;;;12.20;99.90;;;;;;4827013;29;20050;-94
2023/04/23 21:03:58;;;;;;;6.97;2.40;;;11.70;99.90;;;;;;4855047;29;20052;-94
2023/04/23 21:06:24;;;;;;;9.05;2.67;;;11.70;99.90;;;;;;4827243;29;20049;-93
2023/04/23 21:08:53;;;;;;;6.75;2.55;;;11.60;99.90;;;;;;4848363;29;20036;-92
2023/04/23 21:11:23;;;;;;;7.45;2.42;;;11.60;99.90;;;;;;4855298;29;20140;-92
2023/04/23 21:13:49;;;;;;;5.53;2.70;;;11.60;99.90;;;;;;4846152;29;20137;-93
2023/04/23 21:16:26;;;;;;;7.07;2.47;;;11.60;99.90;;;;;;4845594;29;20097;-92
2023/04/23 21:18:52;;;;;;;6.82;2.45;;;11.50;99.90;;;;;;4858109;29;20038;-92
2023/04/23 21:21:18;;;;;;;6.45;2.63;;;11.50;99.90;;;;;;4830419;29;20041;-93
2023/04/23 21:23:43;;;;;;;7.40;2.70;;;11.40;99.90;;;;;;4845818;29;20046;-95
2023/04/23 21:26:09;;;;;;;5.78;2.80;;;11.40;99.90;;;;;;4842836;29;20054;-92
2023/04/23 21:28:35;;;;;;;7.95;3.15;;;11.40;99.90;;;;;;4845319;29;20089;-93
2023/04/23 21:31:11;;;;;;;7.95;3.08;;;11.40;99.90;;;;;;4829888;29;20054;-92
2023/04/23 21:33:36;;;;;;;6.75;2.90;;;11.40;99.90;;;;;;4847987;29;20044;-92
2023/04/23 21:36:03;;;;;;;9.57;2.75;;;11.40;99.90;;;;;;4850465;29;20148;-92
2023/04/23 21:38:29;;;;;;;6.68;3.03;;;11.40;99.90;;;;;;4830283;29;20049;-93
2023/04/23 21:40:54;;;;;;;5.72;3.20;;;11.30;99.90;;;;;;4845156;29;20105;-92
2023/04/23 21:43:20;;;;;;;5.10;3.15;;;11.30;99.90;;;;;;4845686;29;20424;-92
2023/04/23 21:45:46;;;;;;;8.90;3.83;;;11.30;99.90;;;;;;4845435;29;20045;-92
2023/04/23 21:48:12;;;;;;;8.38;4.30;;;11.30;99.90;;;;;;4845051;29;20049;-93
2023/04/23 21:50:38;;;;;;;10.60;4.28;;;11.30;99.90;;;;;;4858858;29;20049;-92
2023/04/23 21:53:05;;;;;;;7.22;4.30;;;11.30;99.90;;;;;;4833382;29;20053;-93
2023/04/23 21:55:31;;;;;;;8.60;4.07;;;11.70;99.90;;;;;;4846220;29;20077;-93
2023/04/23 21:58:01;;;;;;;9.05;4.00;;;11.30;99.90;;;;;;4846204;29;20477;-95
2023/04/23 22:00:29;;;;;;;9.00;4.60;;;12.10;99.90;;;;;;4829848;29;20049;-94
2023/04/23 22:02:55;;;;;;;8.70;4.22;;;11.30;99.90;;;;;;4851201;29;20049;-93
2023/04/23 22:05:22;;;;;;;7.57;3.92;;;11.30;99.90;;;;;;4848737;29;20049;-94
2023/04/23 22:07:49;;;;;;;9.48;4.57;;;11.30;99.90;;;;;;4845740;29;20054;-94
2023/04/23 22:10:24;;;;;;;8.23;4.05;;;11.50;99.90;;;;;;4858629;29;20060;-95
2023/04/23 22:12:50;;;;;;;8.75;4.15;;;11.30;99.90;;;;;;4855427;29;20048;-93
2023/04/23 22:15:18;;;;;;;7.60;3.80;;;11.50;99.90;;;;;;4829936;29;20049;-94
2023/04/23 22:17:47;;;;;;;6.72;3.67;;;11.30;99.90;;;;;;4845594;29;20052;-94
2023/04/23 22:20:13;;;;;;;7.95;3.10;;;11.40;99.90;;;;;;4829060;29;20045;-95
2023/04/23 22:22:40;;;;;;;7.55;3.40;;;11.40;99.90;;;;;;4854639;29;20124;-93
2023/04/23 22:25:09;;;;;;;8.65;3.38;;;11.30;99.90;;;;;;4847489;29;20164;-93
2023/04/23 22:27:36;;;;;;;8.82;3.20;;;11.40;99.90;;;;;;4844848;29;20062;-92
2023/04/23 22:30:04;;;;;;;10.40;3.45;;;11.90;99.90;;;;;;4847401;29;20144;-93
2023/04/23 22:32:30;;;;;;;7.43;3.40;;;11.30;99.90;;;;;;4844807;29;20088;-92
2023/04/23 22:34:56;;;;;;;6.78;3.40;;;11.30;99.90;;;;;;4828739;29;20136;-92
2023/04/23 22:37:22;;;;;;;6.30;3.50;;;11.30;99.90;;;;;;4834131;29;20042;-91
2023/04/23 22:39:48;;;;;;;7.40;3.13;;;11.30;99.90;;;;;;4842146;29;20094;-93
2023/04/23 22:42:15;;;;;;;11.23;4.72;;;11.30;99.90;;;;;;4829540;29;20045;-92
2023/04/23 22:44:41;;;;;;;6.85;3.10;;;11.30;99.90;;;;;;4828990;29;20641;-92
2023/04/23 22:47:07;;;;;;;6.90;3.20;;;11.30;99.90;;;;;;4844618;29;20046;-91
2023/04/23 22:49:34;;;;;;;11.50;3.70;;;11.30;99.90;;;;;;4838305;29;20041;-92
2023/04/23 22:52:00;;;;;;;5.55;3.30;;;11.30;99.90;;;;;;4852655;29;20078;-92
2023/04/23 22:54:26;;;;;;;7.07;3.83;;;11.30;99.90;;;;;;4829118;29;20547;-92
2023/04/23 22:56:52;;;;;;;7.25;3.40;;;11.30;99.90;;;;;;4844520;29;20092;-91
2023/04/23 22:59:18;;;;;;;8.25;4.20;;;11.30;99.90;;;;;;4843916;29;20049;-91
2023/04/23 23:01:44;;;;;;;6.72;4.60;;;11.30;99.90;;;;;;4828813;29;20453;-92
2023/04/23 23:04:11;;;;;;;8.63;4.30;;;11.30;99.90;;;;;;4840001;29;20041;-91
2023/04/23 23:06:38;;;;;;;9.13;5.15;;;11.30;99.90;;;;;;4851460;29;20049;-92
2023/04/23 23:09:04;;;;;;;12.73;4.72;;;11.60;99.90;;;;;;4828488;29;20076;-94
2023/04/23 23:11:29;;;;;;;6.65;4.20;;;11.30;99.90;;;;;;4843615;29;20405;-94
2023/04/23 23:13:56;;;;;;;6.65;4.30;;;11.20;99.90;;;;;;4829162;29;20042;-94
2023/04/23 23:16:22;;;;;;;6.03;4.32;;;11.30;99.90;;;;;;4843910;29;20045;-93
2023/04/23 23:18:48;;;;;;;5.97;4.00;;;11.30;99.90;;;;;;4828717;29;20060;-92
2023/04/23 23:21:15;;;;;;;7.60;4.60;;;11.30;99.90;;;;;;4854428;29;20052;-93
2023/04/23 23:23:43;;;;;;;8.90;4.30;;;11.30;99.90;;;;;;4845368;29;20046;-94
2023/04/23 23:26:09;;;;;;;7.57;4.28;;;11.30;99.90;;;;;;4829306;29;20060;-93
2023/04/23 23:28:35;;;;;;;7.38;4.15;;;11.30;99.90;;;;;;4843508;29;20057;-93
2023/04/23 23:31:02;;;;;;;7.57;4.40;;;11.30;99.90;;;;;;4842996;29;20091;-94
2023/04/23 23:33:28;;;;;;;8.15;4.63;;;11.30;99.90;;;;;;4862922;29;20036;-92
2023/04/23 23:35:54;;;;;;;5.80;4.28;;;11.20;99.90;;;;;;4850674;29;20080;-92
2023/04/23 23:38:25;;;;;;;8.00;4.70;;;11.30;99.90;;;;;;4827275;29;20184;-92
2023/04/23 23:40:51;;;;;;;6.47;4.72;;;11.30;99.90;;;;;;4843205;29;20056;-92
2023/04/23 23:43:17;;;;;;;13.63;5.88;;;11.30;99.90;;;;;;4831735;29;20041;-92
2023/04/23 23:45:43;;;;;;;11.80;5.43;;;11.30;99.90;;;;;;4833709;29;20084;-93
2023/04/23 23:48:11;;;;;;;9.07;5.68;;;11.30;99.90;;;;;;4832104;29;20049;-94
2023/04/23 23:50:37;;;;;;;11.65;5.85;;;11.30;99.90;;;;;;4844435;29;20084;-94
2023/04/23 23:53:03;;;;;;;11.65;6.20;;;11.30;99.90;;;;;;4861616;29;20083;-93
2023/04/23 23:55:29;;;;;;;7.68;5.90;;;11.20;99.90;;;;;;4848644;29;20133;-93
2023/04/23 23:58:02;;;;;;;9.52;6.07;;;11.20;99.90;;;;;;4852125;29;20056;-92
